Terminal Aerodrome Forecast
Issued by NWS

Home | Current Version | Previous Version | Text Only | Print | Product List | Glossary On
Versions: 1 2 3 4 5 6 7 8 9 10 11 12 13 14 15 16 17
000
FTUS43 KTOP 131700
TAFFOE
TAF
KFOE 131730Z 1318/1418 36008KT P6SM FEW020 SCT050
      TEMPO 1318/1319 SCT020
     FM140200 VRB03KT P6SM FEW150
     FM141400 33010KT P6SM VCTS BKN100CB=

USA.gov is the U.S. government's official web portal to all federal, state and local government web resources and services.